sensor_id;sensor_type;location;lat;lon;timestamp;pressure;altitude;pressure_sealevel;temperature;humidity
59055;BME280;44845;51.444;7.460;2024-02-26T00:00:22;98073.19;;;6.39;67.53
59055;BME280;44845;51.444;7.460;2024-02-26T00:02:48;98073.09;;;6.46;68.51
59055;BME280;44845;51.444;7.460;2024-02-26T00:05:13;98076.47;;;6.51;67.82
59055;BME280;44845;51.444;7.460;2024-02-26T00:07:38;98074.00;;;6.41;66.79
59055;BME280;44845;51.444;7.460;2024-02-26T00:10:04;98067.19;;;6.36;67.30
59055;BME280;44845;51.444;7.460;2024-02-26T00:12:30;98062.84;;;6.36;66.97
59055;BME280;44845;51.444;7.460;2024-02-26T00:14:55;98061.63;;;6.55;67.16
59055;BME280;44845;51.444;7.460;2024-02-26T00:17:23;98059.84;;;6.57;67.28
59055;BME280;44845;51.444;7.460;2024-02-26T00:19:49;98067.56;;;6.61;67.77
59055;BME280;44845;51.444;7.460;2024-02-26T00:22:15;98060.75;;;6.54;65.98
59055;BME280;44845;51.444;7.460;2024-02-26T00:24:40;98064.31;;;6.50;67.32
59055;BME280;44845;51.444;7.460;2024-02-26T00:27:06;98062.38;;;6.60;67.88
59055;BME280;44845;51.444;7.460;2024-02-26T00:29:32;98062.00;;;6.36;66.11
59055;BME280;44845;51.444;7.460;2024-02-26T00:31:57;98061.63;;;6.55;67.05
59055;BME280;44845;51.444;7.460;2024-02-26T00:34:23;98061.00;;;6.41;66.20
59055;BME280;44845;51.444;7.460;2024-02-26T00:36:48;98064.22;;;6.56;67.70
59055;BME280;44845;51.444;7.460;2024-02-26T00:39:13;98063.31;;;6.57;65.85
59055;BME280;44845;51.444;7.460;2024-02-26T00:41:40;98064.25;;;6.53;67.93
59055;BME280;44845;51.444;7.460;2024-02-26T00:44:05;98061.72;;;6.50;66.56
59055;BME280;44845;51.444;7.460;2024-02-26T00:46:31;98059.38;;;6.36;66.65
59055;BME280;44845;51.444;7.460;2024-02-26T00:48:56;98070.44;;;6.47;67.05
59055;BME280;44845;51.444;7.460;2024-02-26T00:51:21;98072.84;;;6.58;68.19
59055;BME280;44845;51.444;7.460;2024-02-26T00:53:47;98073.63;;;6.62;67.80
59055;BME280;44845;51.444;7.460;2024-02-26T00:56:12;98063.94;;;6.69;66.76
59055;BME280;44845;51.444;7.460;2024-02-26T00:58:37;98058.81;;;6.66;66.82
59055;BME280;44845;51.444;7.460;2024-02-26T01:01:03;98059.16;;;6.47;66.46
59055;BME280;44845;51.444;7.460;2024-02-26T01:03:28;98051.94;;;6.15;67.56
59055;BME280;44845;51.444;7.460;2024-02-26T01:05:54;98045.88;;;6.16;67.87
59055;BME280;44845;51.444;7.460;2024-02-26T01:08:19;98053.91;;;6.01;67.68
59055;BME280;44845;51.444;7.460;2024-02-26T01:10:44;98055.47;;;6.13;68.42
59055;BME280;44845;51.444;7.460;2024-02-26T01:13:10;98046.66;;;6.20;68.44
59055;BME280;44845;51.444;7.460;2024-02-26T01:15:35;98044.00;;;6.23;68.07
59055;BME280;44845;51.444;7.460;2024-02-26T01:18:01;98039.56;;;6.27;67.51
59055;BME280;44845;51.444;7.460;2024-02-26T01:20:26;98047.25;;;6.36;67.94
59055;BME280;44845;51.444;7.460;2024-02-26T01:22:51;98053.78;;;6.56;69.74
59055;BME280;44845;51.444;7.460;2024-02-26T01:25:17;98061.66;;;6.51;69.03
59055;BME280;44845;51.444;7.460;2024-02-26T01:27:43;98063.25;;;6.59;69.06
59055;BME280;44845;51.444;7.460;2024-02-26T01:30:09;98062.38;;;6.60;70.07
59055;BME280;44845;51.444;7.460;2024-02-26T01:32:35;98067.53;;;6.63;70.03
59055;BME280;44845;51.444;7.460;2024-02-26T01:35:01;98068.31;;;6.67;69.85
59055;BME280;44845;51.444;7.460;2024-02-26T01:37:28;98065.59;;;6.73;69.09
59055;BME280;44845;51.444;7.460;2024-02-26T01:39:55;98071.84;;;6.64;68.21
59055;BME280;44845;51.444;7.460;2024-02-26T01:42:20;98067.25;;;6.77;69.71
59055;BME280;44845;51.444;7.460;2024-02-26T01:44:45;98075.06;;;6.77;69.57
59055;BME280;44845;51.444;7.460;2024-02-26T01:47:13;98064.75;;;6.72;67.25
59055;BME280;44845;51.444;7.460;2024-02-26T01:49:39;98064.63;;;6.77;69.23
59055;BME280;44845;51.444;7.460;2024-02-26T01:52:06;98062.03;;;6.77;68.04
59055;BME280;44845;51.444;7.460;2024-02-26T01:54:34;98063.63;;;6.40;66.90
59055;BME280;44845;51.444;7.460;2024-02-26T01:57:01;98063.53;;;6.46;67.71
59055;BME280;44845;51.444;7.460;2024-02-26T01:59:27;98059.06;;;6.53;67.00
59055;BME280;44845;51.444;7.460;2024-02-26T02:01:55;98053.22;;;6.40;67.08
59055;BME280;44845;51.444;7.460;2024-02-26T02:04:23;98054.03;;;6.44;67.53
59055;BME280;44845;51.444;7.460;2024-02-26T02:06:48;98058.44;;;6.40;67.57
59055;BME280;44845;51.444;7.460;2024-02-26T02:09:14;98057.50;;;6.42;67.73
59055;BME280;44845;51.444;7.460;2024-02-26T02:11:39;98064.28;;;6.51;67.79
59055;BME280;44845;51.444;7.460;2024-02-26T02:14:04;98061.00;;;6.41;67.30
59055;BME280;44845;51.444;7.460;2024-02-26T02:16:30;98068.56;;;6.54;67.21
59055;BME280;44845;51.444;7.460;2024-02-26T02:18:55;98066.88;;;6.53;67.77
59055;BME280;44845;51.444;7.460;2024-02-26T02:21:20;98072.59;;;6.71;67.74
59055;BME280;44845;51.444;7.460;2024-02-26T02:23:46;98060.66;;;6.60;67.02
59055;BME280;44845;51.444;7.460;2024-02-26T02:26:12;98063.34;;;6.54;67.16
59055;BME280;44845;51.444;7.460;2024-02-26T02:28:39;98069.47;;;6.53;69.22
59055;BME280;44845;51.444;7.460;2024-02-26T02:31:05;98063.34;;;6.54;69.09
59055;BME280;44845;51.444;7.460;2024-02-26T02:33:30;98060.84;;;6.49;70.07
59055;BME280;44845;51.444;7.460;2024-02-26T02:35:56;98072.66;;;6.68;69.33
59055;BME280;44845;51.444;7.460;2024-02-26T02:38:23;98072.13;;;6.50;67.99
59055;BME280;44845;51.444;7.460;2024-02-26T02:40:51;98071.31;;;6.48;67.89
59055;BME280;44845;51.444;7.460;2024-02-26T02:43:16;98064.84;;;6.66;67.57
59055;BME280;44845;51.444;7.460;2024-02-26T02:45:41;98072.03;;;6.56;67.52
59055;BME280;44845;51.444;7.460;2024-02-26T02:48:07;98073.72;;;6.57;68.36
59055;BME280;44845;51.444;7.460;2024-02-26T02:50:32;98073.69;;;6.59;69.62
59055;BME280;44845;51.444;7.460;2024-02-26T02:52:57;98070.44;;;6.49;69.76
59055;BME280;44845;51.444;7.460;2024-02-26T02:55:23;98080.00;;;6.47;68.50
59055;BME280;44845;51.444;7.460;2024-02-26T02:57:48;98079.75;;;6.59;69.28
59055;BME280;44845;51.444;7.460;2024-02-26T03:00:13;98084.03;;;6.62;69.41
59055;BME280;44845;51.444;7.460;2024-02-26T03:02:39;98079.75;;;6.59;69.37
59055;BME280;44845;51.444;7.460;2024-02-26T03:05:05;98079.91;;;6.53;68.88
59055;BME280;44845;51.444;7.460;2024-02-26T03:07:30;98083.41;;;6.50;68.10
59055;BME280;44845;51.444;7.460;2024-02-26T03:09:55;98085.06;;;6.55;68.20
59055;BME280;44845;51.444;7.460;2024-02-26T03:12:21;98095.47;;;6.56;68.14
59055;BME280;44845;51.444;7.460;2024-02-26T03:14:46;98094.41;;;6.65;68.66
59055;BME280;44845;51.444;7.460;2024-02-26T03:17:12;98088.34;;;6.64;68.50
59055;BME280;44845;51.444;7.460;2024-02-26T03:19:37;98099.66;;;6.63;69.43
59055;BME280;44845;51.444;7.460;2024-02-26T03:22:03;98090.25;;;6.56;69.76
59055;BME280;44845;51.444;7.460;2024-02-26T03:24:28;98089.44;;;6.52;69.75
59055;BME280;44845;51.444;7.460;2024-02-26T03:26:53;98096.31;;;6.57;71.99
59055;BME280;44845;51.444;7.460;2024-02-26T03:29:19;98098.81;;;6.61;72.30
59055;BME280;44845;51.444;7.460;2024-02-26T03:31:44;98089.69;;;6.40;70.26
59055;BME280;44845;51.444;7.460;2024-02-26T03:34:09;98101.06;;;6.34;71.83
59055;BME280;44845;51.444;7.460;2024-02-26T03:36:37;98100.41;;;6.23;73.75
59055;BME280;44845;51.444;7.460;2024-02-26T03:39:02;98091.13;;;6.06;74.27
59055;BME280;44845;51.444;7.460;2024-02-26T03:41:32;98096.25;;;6.12;74.83
59055;BME280;44845;51.444;7.460;2024-02-26T03:43:58;98099.63;;;6.17;75.51
59055;BME280;44845;51.444;7.460;2024-02-26T03:46:24;98104.19;;;6.04;76.03
59055;BME280;44845;51.444;7.460;2024-02-26T03:48:49;98088.13;;;5.79;76.94
59055;BME280;44845;51.444;7.460;2024-02-26T03:51:14;98091.59;;;5.78;77.41
59055;BME280;44845;51.444;7.460;2024-02-26T03:53:40;98086.13;;;5.93;79.42
59055;BME280;44845;51.444;7.460;2024-02-26T03:56:06;98080.28;;;5.82;78.53
59055;BME280;44845;51.444;7.460;2024-02-26T03:58:31;98082.66;;;5.94;79.04
59055;BME280;44845;51.444;7.460;2024-02-26T04:00:57;98077.47;;;5.94;79.57
59055;BME280;44845;51.444;7.460;2024-02-26T04:03:22;98082.44;;;5.55;78.04
59055;BME280;44845;51.444;7.460;2024-02-26T04:05:47;98080.19;;;5.33;79.35
59055;BME280;44845;51.444;7.460;2024-02-26T04:08:13;98080.00;;;5.44;81.28
59055;BME280;44845;51.444;7.460;2024-02-26T04:10:38;98079.16;;;5.43;80.52
59055;BME280;44845;51.444;7.460;2024-02-26T04:13:04;98076.78;;;5.27;80.99
59055;BME280;44845;51.444;7.460;2024-02-26T04:15:30;98078.34;;;5.39;81.26
59055;BME280;44845;51.444;7.460;2024-02-26T04:17:56;98077.38;;;5.45;81.09
59055;BME280;44845;51.444;7.460;2024-02-26T04:20:21;98079.06;;;4.88;82.36
59055;BME280;44845;51.444;7.460;2024-02-26T04:22:47;98087.81;;;4.80;83.51
59055;BME280;44845;51.444;7.460;2024-02-26T04:25:12;98089.69;;;4.69;83.78
59055;BME280;44845;51.444;7.460;2024-02-26T04:27:38;98089.97;;;4.44;85.43
59055;BME280;44845;51.444;7.460;2024-02-26T04:30:04;98095.03;;;4.56;84.64
59055;BME280;44845;51.444;7.460;2024-02-26T04:32:30;98098.13;;;4.87;85.50
59055;BME280;44845;51.444;7.460;2024-02-26T04:34:55;98089.69;;;4.69;84.88
59055;BME280;44845;51.444;7.460;2024-02-26T04:37:20;98086.09;;;4.78;84.49
59055;BME280;44845;51.444;7.460;2024-02-26T04:39:46;98086.94;;;4.80;84.10
59055;BME280;44845;51.444;7.460;2024-02-26T04:42:11;98091.59;;;4.54;84.63
59055;BME280;44845;51.444;7.460;2024-02-26T04:44:36;98099.38;;;4.53;85.42
59055;BME280;44845;51.444;7.460;2024-02-26T04:47:02;98099.53;;;4.38;85.72
59055;BME280;44845;51.444;7.460;2024-02-26T04:49:27;98112.31;;;4.57;86.02
59055;BME280;44845;51.444;7.460;2024-02-26T04:51:52;98111.31;;;4.71;86.13
59055;BME280;44845;51.444;7.460;2024-02-26T04:54:19;98114.75;;;4.71;84.68
59055;BME280;44845;51.444;7.460;2024-02-26T04:56:44;98112.13;;;4.73;85.36
59055;BME280;44845;51.444;7.460;2024-02-26T04:59:10;98116.59;;;4.61;85.13
59055;BME280;44845;51.444;7.460;2024-02-26T05:01:35;98118.97;;;4.80;85.40
59055;BME280;44845;51.444;7.460;2024-02-26T05:04:02;98130.09;;;4.90;84.90
59055;BME280;44845;51.444;7.460;2024-02-26T05:06:28;98132.69;;;4.93;84.69
59055;BME280;44845;51.444;7.460;2024-02-26T05:08:53;98132.63;;;4.98;84.31
59055;BME280;44845;51.444;7.460;2024-02-26T05:11:19;98136.72;;;5.15;84.91
59055;BME280;44845;51.444;7.460;2024-02-26T05:13:44;98132.22;;;5.26;86.38
59055;BME280;44845;51.444;7.460;2024-02-26T05:16:10;98135.22;;;4.96;83.25
59055;BME280;44845;51.444;7.460;2024-02-26T05:18:36;98136.97;;;4.94;84.97
59055;BME280;44845;51.444;7.460;2024-02-26T05:21:01;98148.06;;;5.11;86.53
59055;BME280;44845;51.444;7.460;2024-02-26T05:23:28;98142.75;;;5.17;85.60
59055;BME280;44845;51.444;7.460;2024-02-26T05:25:54;98153.75;;;5.36;86.08
59055;BME280;44845;51.444;7.460;2024-02-26T05:28:19;98153.94;;;5.25;84.49
59055;BME280;44845;51.444;7.460;2024-02-26T05:30:45;98154.81;;;5.21;83.81
59055;BME280;44845;51.444;7.460;2024-02-26T05:33:11;98151.97;;;5.41;85.01
59055;BME280;44845;51.444;7.460;2024-02-26T05:35:37;98152.00;;;5.38;84.22
59055;BME280;44845;51.444;7.460;2024-02-26T05:38:02;98147.75;;;5.33;84.60
59055;BME280;44845;51.444;7.460;2024-02-26T05:40:28;98163.56;;;5.17;84.21
59055;BME280;44845;51.444;7.460;2024-02-26T05:42:53;98152.25;;;5.20;85.58
59055;BME280;44845;51.444;7.460;2024-02-26T05:45:18;98162.00;;;5.03;85.01
59055;BME280;44845;51.444;7.460;2024-02-26T05:47:44;98157.94;;;4.80;86.16
59055;BME280;44845;51.444;7.460;2024-02-26T05:50:10;98159.19;;;4.45;86.80
59055;BME280;44845;51.444;7.460;2024-02-26T05:52:39;98157.44;;;4.47;88.09
59055;BME280;44845;51.444;7.460;2024-02-26T05:55:05;98157.31;;;4.59;89.25
59055;BME280;44845;51.444;7.460;2024-02-26T05:57:31;98160.69;;;4.65;88.97
59055;BME280;44845;51.444;7.460;2024-02-26T05:59:57;98153.53;;;4.89;88.73
59055;BME280;44845;51.444;7.460;2024-02-26T06:02:26;98155.03;;;5.05;88.10
59055;BME280;44845;51.444;7.460;2024-02-26T06:04:51;98154.94;;;5.12;87.75
59055;BME280;44845;51.444;7.460;2024-02-26T06:07:16;98160.16;;;5.12;87.42
59055;BME280;44845;51.444;7.460;2024-02-26T06:09:41;98170.34;;;5.27;87.88
59055;BME280;44845;51.444;7.460;2024-02-26T06:12:07;98171.44;;;5.09;86.12
59055;BME280;44845;51.444;7.460;2024-02-26T06:14:32;98166.94;;;5.24;87.47
59055;BME280;44845;51.444;7.460;2024-02-26T06:16:58;98174.63;;;5.32;87.51
59055;BME280;44845;51.444;7.460;2024-02-26T06:19:23;98177.09;;;5.41;87.07
59055;BME280;44845;51.444;7.460;2024-02-26T06:21:51;98178.06;;;5.35;86.92
59055;BME280;44845;51.444;7.460;2024-02-26T06:24:16;98184.06;;;5.39;87.82
59055;BME280;44845;51.444;7.460;2024-02-26T06:26:42;98183.28;;;5.32;86.16
59055;BME280;44845;51.444;7.460;2024-02-26T06:29:07;98179.16;;;5.18;85.94
59055;BME280;44845;51.444;7.460;2024-02-26T06:31:32;98193.81;;;5.21;86.57
59055;BME280;44845;51.444;7.460;2024-02-26T06:33:58;98191.41;;;5.07;86.92
59055;BME280;44845;51.444;7.460;2024-02-26T06:36:23;98194.84;;;5.11;87.03
59055;BME280;44845;51.444;7.460;2024-02-26T06:38:48;98200.09;;;5.04;87.65
59055;BME280;44845;51.444;7.460;2024-02-26T06:41:14;98195.81;;;5.00;88.51
59055;BME280;44845;51.444;7.460;2024-02-26T06:43:40;98200.09;;;5.04;88.85
59055;BME280;44845;51.444;7.460;2024-02-26T06:46:06;98198.56;;;4.88;88.69
59055;BME280;44845;51.444;7.460;2024-02-26T06:48:31;98208.03;;;4.92;89.24
59055;BME280;44845;51.444;7.460;2024-02-26T06:50:57;98205.19;;;5.12;91.70
59055;BME280;44845;51.444;7.460;2024-02-26T06:53:22;98207.25;;;4.82;88.40
59055;BME280;44845;51.444;7.460;2024-02-26T06:55:48;98205.59;;;4.76;90.23
59055;BME280;44845;51.444;7.460;2024-02-26T06:58:15;98207.13;;;4.96;90.43
59055;BME280;44845;51.444;7.460;2024-02-26T07:00:40;98200.78;;;5.19;91.57
59055;BME280;44845;51.444;7.460;2024-02-26T07:03:06;98206.66;;;5.34;90.62
59055;BME280;44845;51.444;7.460;2024-02-26T07:05:31;98210.31;;;5.20;88.79
59055;BME280;44845;51.444;7.460;2024-02-26T07:07:56;98211.94;;;5.27;90.08
59055;BME280;44845;51.444;7.460;2024-02-26T07:10:22;98207.03;;;5.05;89.56
59055;BME280;44845;51.444;7.460;2024-02-26T07:12:47;98213.75;;;5.22;91.30
59055;BME280;44845;51.444;7.460;2024-02-26T07:15:13;98214.59;;;5.24;89.19
59055;BME280;44845;51.444;7.460;2024-02-26T07:17:38;98222.25;;;5.35;89.80
59055;BME280;44845;51.444;7.460;2024-02-26T07:20:08;98217.13;;;5.29;89.37
59055;BME280;44845;51.444;7.460;2024-02-26T07:22:33;98217.88;;;5.39;88.59
59055;BME280;44845;51.444;7.460;2024-02-26T07:24:58;98229.91;;;5.48;87.92
59055;BME280;44845;51.444;7.460;2024-02-26T07:27:24;98216.13;;;5.39;88.24
59055;BME280;44845;51.444;7.460;2024-02-26T07:29:49;98223.56;;;5.66;90.23
59055;BME280;44845;51.444;7.460;2024-02-26T07:32:14;98224.50;;;5.62;89.93
59055;BME280;44845;51.444;7.460;2024-02-26T07:34:42;98228.19;;;5.44;87.01
59055;BME280;44845;51.444;7.460;2024-02-26T07:37:09;98235.94;;;5.48;88.60
59055;BME280;44845;51.444;7.460;2024-02-26T07:39:35;98242.00;;;5.49;88.74
59055;BME280;44845;51.444;7.460;2024-02-26T07:42:00;98240.25;;;5.52;87.88
59055;BME280;44845;51.444;7.460;2024-02-26T07:44:26;98239.66;;;5.28;87.53
59055;BME280;44845;51.444;7.460;2024-02-26T07:46:51;98241.25;;;5.39;88.77
59055;BME280;44845;51.444;7.460;2024-02-26T07:49:16;98246.44;;;5.42;89.07
59055;BME280;44845;51.444;7.460;2024-02-26T07:51:42;98244.47;;;5.60;89.48
59055;BME280;44845;51.444;7.460;2024-02-26T07:54:07;98257.50;;;5.57;88.65
59055;BME280;44845;51.444;7.460;2024-02-26T07:56:32;98260.81;;;5.68;89.75
59055;BME280;44845;51.444;7.460;2024-02-26T07:58:58;98258.34;;;5.59;88.20
59055;BME280;44845;51.444;7.460;2024-02-26T08:01:23;98255.06;;;5.44;88.12
59055;BME280;44845;51.444;7.460;2024-02-26T08:03:51;98263.97;;;5.24;89.73
59055;BME280;44845;51.444;7.460;2024-02-26T08:06:16;98259.59;;;5.26;91.05
59055;BME280;44845;51.444;7.460;2024-02-26T08:08:41;98262.88;;;5.44;90.92
59055;BME280;44845;51.444;7.460;2024-02-26T08:11:07;98267.13;;;5.51;91.16
59055;BME280;44845;51.444;7.460;2024-02-26T08:13:34;98273.81;;;5.68;90.57
59055;BME280;44845;51.444;7.460;2024-02-26T08:15:59;98275.72;;;5.57;89.36
59055;BME280;44845;51.444;7.460;2024-02-26T08:18:24;98267.81;;;5.63;90.04
59055;BME280;44845;51.444;7.460;2024-02-26T08:20:50;98275.59;;;5.66;89.57
59055;BME280;44845;51.444;7.460;2024-02-26T08:23:15;98272.28;;;5.55;89.50
59055;BME280;44845;51.444;7.460;2024-02-26T08:25:41;98277.25;;;5.70;89.26
59055;BME280;44845;51.444;7.460;2024-02-26T08:28:06;98277.25;;;5.70;89.07
59055;BME280;44845;51.444;7.460;2024-02-26T08:30:31;98275.81;;;5.50;89.16
59055;BME280;44845;51.444;7.460;2024-02-26T08:32:57;98272.44;;;5.42;90.17
59055;BME280;44845;51.444;7.460;2024-02-26T08:35:22;98278.28;;;5.60;91.59
59055;BME280;44845;51.444;7.460;2024-02-26T08:37:48;98281.72;;;5.60;90.71
59055;BME280;44845;51.444;7.460;2024-02-26T08:40:14;98284.97;;;5.80;90.43
59055;BME280;44845;51.444;7.460;2024-02-26T08:42:39;98282.47;;;5.70;89.60
59055;BME280;44845;51.444;7.460;2024-02-26T08:45:05;98287.31;;;5.29;88.93
59055;BME280;44845;51.444;7.460;2024-02-26T08:47:30;98284.56;;;5.43;91.21
59055;BME280;44845;51.444;7.460;2024-02-26T08:49:56;98275.72;;;5.57;91.84
59055;BME280;44845;51.444;7.460;2024-02-26T08:52:21;98282.44;;;5.73;92.13
59055;BME280;44845;51.444;7.460;2024-02-26T08:54:48;98285.44;;;6.10;89.64
59055;BME280;44845;51.444;7.460;2024-02-26T08:57:13;98288.47;;;6.40;89.21
59055;BME280;44845;51.444;7.460;2024-02-26T08:59:39;98288.66;;;6.28;87.52
59055;BME280;44845;51.444;7.460;2024-02-26T09:02:04;98296.22;;;5.82;87.51
59055;BME280;44845;51.444;7.460;2024-02-26T09:04:29;98293.84;;;5.65;88.91
59055;BME280;44845;51.444;7.460;2024-02-26T09:06:55;98288.53;;;5.71;89.47
59055;BME280;44845;51.444;7.460;2024-02-26T09:09:20;98292.09;;;5.65;90.30
59055;BME280;44845;51.444;7.460;2024-02-26T09:11:47;98285.22;;;5.59;89.16
59055;BME280;44845;51.444;7.460;2024-02-26T09:14:12;98296.75;;;5.38;91.00
59055;BME280;44845;51.444;7.460;2024-02-26T09:16:38;98299.31;;;5.43;90.57
59055;BME280;44845;51.444;7.460;2024-02-26T09:19:03;98299.28;;;5.44;91.45
59055;BME280;44845;51.444;7.460;2024-02-26T09:21:28;98310.34;;;5.62;92.08
59055;BME280;44845;51.444;7.460;2024-02-26T09:23:54;98314.69;;;5.60;90.45
59055;BME280;44845;51.444;7.460;2024-02-26T09:26:19;98310.56;;;5.43;91.22
59055;BME280;44845;51.444;7.460;2024-02-26T09:28:45;98319.06;;;5.58;91.68
59055;BME280;44845;51.444;7.460;2024-02-26T09:31:10;98317.16;;;5.72;91.27
59055;BME280;44845;51.444;7.460;2024-02-26T09:33:36;98311.91;;;5.74;90.03
59055;BME280;44845;51.444;7.460;2024-02-26T09:36:02;98314.66;;;5.61;89.79
59055;BME280;44845;51.444;7.460;2024-02-26T09:38:28;98317.41;;;5.49;90.45
59055;BME280;44845;51.444;7.460;2024-02-26T09:40:56;98321.72;;;5.51;89.97
59055;BME280;44845;51.444;7.460;2024-02-26T09:43:22;98329.16;;;5.81;90.26
59055;BME280;44845;51.444;7.460;2024-02-26T09:45:53;98315.53;;;5.62;89.95
59055;BME280;44845;51.444;7.460;2024-02-26T09:48:19;98326.78;;;5.64;90.54
59055;BME280;44845;51.444;7.460;2024-02-26T09:50:45;98326.78;;;5.64;90.98
59055;BME280;44845;51.444;7.460;2024-02-26T09:53:12;98331.06;;;5.70;91.43
59055;BME280;44845;51.444;7.460;2024-02-26T09:55:37;98326.75;;;5.67;91.24
59055;BME280;44845;51.444;7.460;2024-02-26T09:58:04;98327.81;;;5.50;90.70
59055;BME280;44845;51.444;7.460;2024-02-26T10:00:31;98329.56;;;5.47;90.89
59055;BME280;44845;51.444;7.460;2024-02-26T10:03:04;98336.50;;;5.46;91.07
59055;BME280;44845;51.444;7.460;2024-02-26T10:05:31;98352.97;;;5.47;91.02
59055;BME280;44845;51.444;7.460;2024-02-26T10:07:57;98332.97;;;5.54;91.23
59055;BME280;44845;51.444;7.460;2024-02-26T10:10:25;98343.25;;;5.63;90.61
59055;BME280;44845;51.444;7.460;2024-02-26T10:12:52;98344.97;;;5.67;90.70
59055;BME280;44845;51.444;7.460;2024-02-26T10:15:18;98353.56;;;5.72;90.37
59055;BME280;44845;51.444;7.460;2024-02-26T10:17:43;98369.75;;;5.96;91.44
59055;BME280;44845;51.444;7.460;2024-02-26T10:20:18;98376.69;;;5.96;91.47
59055;BME280;44845;51.444;7.460;2024-02-26T10:22:46;98386.06;;;6.11;90.19
59055;BME280;44845;51.444;7.460;2024-02-26T10:25:12;98393.03;;;6.06;89.82
59055;BME280;44845;51.444;7.460;2024-02-26T10:27:37;98388.78;;;6.02;88.60
59055;BME280;44845;51.444;7.460;2024-02-26T10:30:04;98384.28;;;6.15;90.00
59055;BME280;44845;51.444;7.460;2024-02-26T10:32:30;98384.16;;;6.26;92.35
59055;BME280;44845;51.444;7.460;2024-02-26T10:34:57;98389.25;;;6.32;91.47
59055;BME280;44845;51.444;7.460;2024-02-26T10:37:22;98395.25;;;6.37;87.91
59055;BME280;44845;51.444;7.460;2024-02-26T10:39:48;98388.59;;;6.19;88.35
59055;BME280;44845;51.444;7.460;2024-02-26T10:42:13;98387.63;;;6.25;88.99
59055;BME280;44845;51.444;7.460;2024-02-26T10:44:40;98390.44;;;6.09;88.17
59055;BME280;44845;51.444;7.460;2024-02-26T10:47:09;98387.94;;;6.00;89.27
59055;BME280;44845;51.444;7.460;2024-02-26T10:49:35;98393.34;;;5.81;89.89
59055;BME280;44845;51.444;7.460;2024-02-26T10:52:01;98390.88;;;5.70;90.77
59055;BME280;44845;51.444;7.460;2024-02-26T10:54:29;98395.88;;;5.87;91.28
59055;BME280;44845;51.444;7.460;2024-02-26T10:56:56;98392.28;;;5.99;90.47
59055;BME280;44845;51.444;7.460;2024-02-26T10:59:22;98400.84;;;6.07;90.07
59055;BME280;44845;51.444;7.460;2024-02-26T11:01:48;98398.19;;;6.12;89.68
59055;BME280;44845;51.444;7.460;2024-02-26T11:04:15;98398.41;;;5.93;90.13
59055;BME280;44845;51.444;7.460;2024-02-26T11:06:41;98415.59;;;6.05;90.21
59055;BME280;44845;51.444;7.460;2024-02-26T11:09:08;98413.88;;;6.07;91.19
59055;BME280;44845;51.444;7.460;2024-02-26T11:11:38;98417.19;;;6.21;91.59
59055;BME280;44845;51.444;7.460;2024-02-26T11:14:05;98406.75;;;6.24;90.20
59055;BME280;44845;51.444;7.460;2024-02-26T11:16:32;98414.25;;;6.44;91.44
59055;BME280;44845;51.444;7.460;2024-02-26T11:19:00;98411.88;;;6.27;90.19
59055;BME280;44845;51.444;7.460;2024-02-26T11:21:27;98415.44;;;6.19;88.91
59055;BME280;44845;51.444;7.460;2024-02-26T11:23:56;98419.84;;;6.16;90.23
59055;BME280;44845;51.444;7.460;2024-02-26T11:26:23;98417.19;;;6.21;91.19
59055;BME280;44845;51.444;7.460;2024-02-26T11:28:49;98419.72;;;6.25;90.57
59055;BME280;44845;51.444;7.460;2024-02-26T11:31:16;98418.78;;;6.31;91.29
59055;BME280;44845;51.444;7.460;2024-02-26T11:33:43;98417.97;;;6.29;89.51
59055;BME280;44845;51.444;7.460;2024-02-26T11:36:09;98422.97;;;6.43;88.30
59055;BME280;44845;51.444;7.460;2024-02-26T11:38:35;98415.06;;;6.51;88.30
59055;BME280;44845;51.444;7.460;2024-02-26T11:41:01;98423.59;;;6.59;88.62
59055;BME280;44845;51.444;7.460;2024-02-26T11:46:30;98428.78;;;6.62;89.34
59055;BME280;44845;51.444;7.460;2024-02-26T11:49:00;98423.31;;;6.80;89.53
59055;BME280;44845;51.444;7.460;2024-02-26T11:51:35;98425.19;;;6.70;86.27
59055;BME280;44845;51.444;7.460;2024-02-26T11:54:00;98430.25;;;6.79;86.26
59055;BME280;44845;51.444;7.460;2024-02-26T11:56:26;98436.38;;;6.76;85.45
59055;BME280;44845;51.444;7.460;2024-02-26T11:59:00;98431.84;;;6.90;86.96
59055;BME280;44845;51.444;7.460;2024-02-26T12:01:46;98436.91;;;6.99;86.65
59055;BME280;44845;51.444;7.460;2024-02-26T12:04:24;98441.94;;;7.12;85.85
59055;BME280;44845;51.444;7.460;2024-02-26T12:06:54;98454.13;;;7.09;84.65
59055;BME280;44845;51.444;7.460;2024-02-26T12:09:39;98444.06;;;6.87;84.40
59055;BME280;44845;51.444;7.460;2024-02-26T12:12:09;98452.53;;;7.01;83.57
59055;BME280;44845;51.444;7.460;2024-02-26T12:14:56;98451.94;;;6.83;83.62
59055;BME280;44845;51.444;7.460;2024-02-26T12:17:23;98452.84;;;6.80;83.11
59055;BME280;44845;51.444;7.460;2024-02-26T12:19:49;98461.38;;;6.89;85.52
59055;BME280;44845;51.444;7.460;2024-02-26T12:22:15;98456.25;;;6.85;84.23
59055;BME280;44845;51.444;7.460;2024-02-26T12:24:42;98453.97;;;6.62;83.23
59055;BME280;44845;51.444;7.460;2024-02-26T12:27:07;98450.53;;;6.60;84.33
59055;BME280;44845;51.444;7.460;2024-02-26T12:29:33;98453.03;;;6.68;84.33
59055;BME280;44845;51.444;7.460;2024-02-26T12:31:59;98452.16;;;6.67;85.32
59055;BME280;44845;51.444;7.460;2024-02-26T12:34:24;98459.75;;;6.81;85.28
59055;BME280;44845;51.444;7.460;2024-02-26T12:36:50;98459.28;;;6.56;84.72
59055;BME280;44845;51.444;7.460;2024-02-26T12:39:16;98463.56;;;6.58;83.93
59055;BME280;44845;51.444;7.460;2024-02-26T12:41:41;98462.78;;;6.51;86.15
59055;BME280;44845;51.444;7.460;2024-02-26T12:44:14;98462.59;;;6.66;86.65
59055;BME280;44845;51.444;7.460;2024-02-26T12:46:40;98459.19;;;6.60;84.36
59055;BME280;44845;51.444;7.460;2024-02-26T12:49:06;98455.75;;;6.57;85.83
59055;BME280;44845;51.444;7.460;2024-02-26T12:51:33;98456.75;;;6.48;86.02
59055;BME280;44845;51.444;7.460;2024-02-26T12:53:58;98458.38;;;6.58;86.76
59055;BME280;44845;51.444;7.460;2024-02-26T12:56:25;98456.81;;;6.41;86.00
59055;BME280;44845;51.444;7.460;2024-02-26T12:58:51;98477.72;;;6.38;86.89
59055;BME280;44845;51.444;7.460;2024-02-26T13:01:21;98476.03;;;6.36;87.72
59055;BME280;44845;51.444;7.460;2024-02-26T13:03:49;98476.00;;;6.37;87.68
59055;BME280;44845;51.444;7.460;2024-02-26T13:06:15;98478.47;;;6.48;87.89